TimeEDT,TemperatureF,Dew PointF,Humidity,Sea Level PressureIn,VisibilityMPH,Wind Direction,Wind SpeedMPH,Gust SpeedMPH,PrecipitationIn,Events,Conditions,WindDirDegrees,DateUTC
12:58 AM,48.0,47.8,99,30.07,10.0,NE,1.2,-,N/A,,Clear,40,2013-10-04 04:58:00
1:16 AM,46.4,46.4,100,30.07,2.5,NE,3.5,-,N/A,,Scattered Clouds,40,2013-10-04 05:16:00
1:17 AM,46.4,46.4,100,30.07,2.0,NE,3.5,-,N/A,,Scattered Clouds,50,2013-10-04 05:17:00
1:18 AM,46.4,46.4,100,30.07,1.8,NE,3.5,-,N/A,,Scattered Clouds,50,2013-10-04 05:18:00
1:19 AM,46.4,46.4,100,30.07,1.5,NE,3.5,-,N/A,,Scattered Clouds,50,2013-10-04 05:19:00
1:20 AM,46.4,46.4,100,30.07,1.2,ENE,2.3,-,N/A,,Scattered Clouds,60,2013-10-04 05:20:00
1:24 AM,46.4,46.4,100,30.07,1.5,NE,2.3,-,N/A,,Scattered Clouds,40,2013-10-04 05:24:00
1:25 AM,46.4,46.4,100,30.07,1.8,NE,2.3,-,N/A,,Scattered Clouds,40,2013-10-04 05:25:00
1:26 AM,46.4,46.4,100,30.07,2.0,NE,2.3,-,N/A,,Scattered Clouds,40,2013-10-04 05:26:00
1:27 AM,46.4,46.4,100,30.07,2.5,NNE,3.5,-,N/A,,Scattered Clouds,30,2013-10-04 05:27:00
1:37 AM,46.4,46.4,100,30.07,3.0,NNE,2.3,-,N/A,,Partly Cloudy,20,2013-10-04 05:37:00
1:47 AM,48.2,46.4,93,30.07,2.5,NNE,3.5,-,N/A,,Clear,30,2013-10-04 05:47:00
1:48 AM,48.2,46.4,93,30.07,2.0,NNE,3.5,-,N/A,,Clear,30,2013-10-04 05:48:00
1:49 AM,46.4,46.4,100,30.07,1.8,NNE,2.3,-,N/A,,Partly Cloudy,30,2013-10-04 05:49:00
1:50 AM,46.4,46.4,100,30.07,1.5,NNE,2.3,-,N/A,,Partly Cloudy,30,2013-10-04 05:50:00
1:54 AM,46.4,46.4,100,30.07,1.8,NNE,3.5,-,N/A,,Scattered Clouds,30,2013-10-04 05:54:00
1:55 AM,46.4,46.4,100,30.07,2.0,NNE,3.5,-,N/A,,Scattered Clouds,30,2013-10-04 05:55:00
1:57 AM,46.4,46.4,100,30.07,2.5,NNE,2.3,-,N/A,,Scattered Clouds,30,2013-10-04 05:57:00
1:58 AM,46.4,46.4,100,30.07,4.0,NE,2.3,-,N/A,,Mostly Cloudy,40,2013-10-04 05:58:00
2:58 AM,48.9,48.7,99,30.08,10.0,Calm,Calm,-,N/A,,Overcast,0,2013-10-04 06:58:00
3:58 AM,49.8,49.6,99,30.08,10.0,East,2.3,-,N/A,,Overcast,80,2013-10-04 07:58:00
4:58 AM,48.4,48.0,99,30.07,10.0,North,2.3,-,N/A,,Clear,10,2013-10-04 08:58:00
5:58 AM,47.7,47.3,99,30.07,10.0,Calm,Calm,-,N/A,,Scattered Clouds,0,2013-10-04 09:58:00
6:58 AM,50.2,49.8,99,30.08,10.0,Variable,1.2,-,N/A,,Mostly Cloudy,0,2013-10-04 10:58:00
7:58 AM,52.3,52.0,99,30.08,10.0,NE,1.2,-,N/A,,Mostly Cloudy,40,2013-10-04 11:58:00
8:58 AM,55.2,54.9,99,30.10,10.0,North,4.6,-,N/A,,Mostly Cloudy,10,2013-10-04 12:58:00
9:27 AM,55.4,55.4,100,30.09,10.0,NW,5.8,-,N/A,,Light Drizzle,320,2013-10-04 13:27:00
9:38 AM,55.4,55.4,100,30.08,6.0,NE,3.5,-,N/A,Rain,Light Rain,40,2013-10-04 13:38:00
9:45 AM,55.4,55.4,100,30.08,2.5,North,2.3,-,N/A,Rain,Rain,360,2013-10-04 13:45:00
9:50 AM,55.4,55.4,100,30.08,3.0,North,5.8,-,N/A,Rain,Light Rain,10,2013-10-04 13:50:00
9:51 AM,55.4,55.4,100,30.08,3.0,North,5.8,-,N/A,Rain,Light Rain,360,2013-10-04 13:51:00
9:58 AM,55.6,55.4,99,30.10,8.0,North,3.5,-,0.04,Rain,Light Rain,10,2013-10-04 13:58:00
10:32 AM,55.4,55.4,100,30.08,2.5,Calm,Calm,-,N/A,Rain,Light Rain,0,2013-10-04 14:32:00
10:35 AM,55.4,55.4,100,30.08,3.0,SW,1.2,-,N/A,Rain,Light Rain,230,2013-10-04 14:35:00
10:42 AM,55.4,55.4,100,30.08,2.5,WSW,1.2,-,N/A,Rain,Light Rain,250,2013-10-04 14:42:00
10:44 AM,55.4,55.4,100,30.08,2.0,Calm,Calm,-,N/A,Rain,Light Rain,0,2013-10-04 14:44:00
10:45 AM,55.4,55.4,100,30.08,1.8,Calm,Calm,-,N/A,Rain,Light Rain,0,2013-10-04 14:45:00
10:47 AM,57.2,55.4,94,30.08,1.5,NNW,1.2,-,N/A,Rain,Rain,330,2013-10-04 14:47:00
10:48 AM,57.2,55.4,94,30.08,1.8,WNW,1.2,-,N/A,Rain,Rain,300,2013-10-04 14:48:00
10:50 AM,57.2,55.4,94,30.08,1.5,Calm,Calm,-,N/A,Rain,Rain,0,2013-10-04 14:50:00
10:52 AM,57.2,55.4,94,30.07,1.2,North,1.2,-,N/A,Rain,Rain,350,2013-10-04 14:52:00
10:53 AM,57.2,55.4,94,30.07,1.0,North,3.5,-,N/A,Rain,Rain,350,2013-10-04 14:53:00
10:57 AM,57.2,55.4,94,30.07,1.2,North,4.6,-,N/A,Rain,Heavy Rain,360,2013-10-04 14:57:00
10:58 AM,57.2,55.4,94,30.09,1.2,NNE,5.8,-,0.19,Rain,Rain,20,2013-10-04 14:58:00
11:02 AM,57.2,55.4,94,30.06,1.5,NNE,5.8,-,N/A,Rain,Rain,30,2013-10-04 15:02:00
11:04 AM,57.2,55.4,94,30.07,1.8,NNE,4.6,-,N/A,Rain,Heavy Rain,20,2013-10-04 15:04:00
11:08 AM,55.4,55.4,100,30.07,2.0,North,5.8,-,N/A,Rain,Light Rain,10,2013-10-04 15:08:00
11:11 AM,57.2,55.4,94,30.07,2.5,North,4.6,-,N/A,Rain,Light Rain,360,2013-10-04 15:11:00
11:12 AM,57.2,55.4,94,30.07,3.0,North,3.5,-,N/A,Rain,Light Rain,350,2013-10-04 15:12:00
11:24 AM,57.2,55.4,94,30.06,4.0,North,3.5,-,N/A,Rain,Light Rain,10,2013-10-04 15:24:00
11:58 AM,57.4,57.0,99,30.11,6.0,NW,12.7,-,0.13,Rain,Light Rain,310,2013-10-04 15:58:00
12:05 PM,57.2,57.2,100,30.09,4.0,NNW,8.1,-,N/A,Rain,Heavy Rain,340,2013-10-04 16:05:00
12:14 PM,57.2,57.2,100,30.08,2.5,NE,3.5,-,N/A,Rain,Rain,50,2013-10-04 16:14:00
12:15 PM,57.2,57.2,100,30.08,2.0,NE,3.5,-,N/A,Rain,Rain,40,2013-10-04 16:15:00
12:17 PM,57.2,57.2,100,30.07,1.5,East,4.6,-,N/A,Rain,Heavy Rain,80,2013-10-04 16:17:00
12:18 PM,57.2,57.2,100,30.07,1.2,Variable,4.6,-,N/A,Rain,Heavy Rain,0,2013-10-04 16:18:00
12:19 PM,57.2,57.2,100,30.07,1.0,SE,4.6,-,N/A,Rain,Heavy Rain,130,2013-10-04 16:19:00
12:21 PM,57.2,57.2,100,30.07,0.8,Variable,3.5,-,N/A,Rain,Heavy Rain,0,2013-10-04 16:21:00
12:22 PM,57.2,57.2,100,30.07,0.8,Variable,1.2,-,N/A,Rain,Rain,0,2013-10-04 16:22:00
12:24 PM,57.2,57.2,100,30.07,1.0,NNE,3.5,-,N/A,Rain,Light Rain,30,2013-10-04 16:24:00
12:27 PM,57.2,57.2,100,30.07,1.2,ENE,2.3,-,N/A,Rain,Light Rain,60,2013-10-04 16:27:00
12:28 PM,57.2,57.2,100,30.07,1.5,NE,1.2,-,N/A,Rain,Light Rain,40,2013-10-04 16:28:00
12:29 PM,57.2,57.2,100,30.07,2.5,Calm,Calm,-,N/A,Rain,Light Rain,0,2013-10-04 16:29:00
12:30 PM,57.2,57.2,100,30.07,3.0,Variable,1.2,-,N/A,Rain,Light Rain,0,2013-10-04 16:30:00
12:35 PM,57.2,57.2,100,30.07,9.0,NNE,2.3,-,N/A,,Light Drizzle,30,2013-10-04 16:35:00
12:36 PM,57.2,57.2,100,30.07,10.0,North,2.3,-,N/A,,Overcast,10,2013-10-04 16:36:00
12:37 PM,57.2,57.2,100,30.07,10.0,North,1.2,-,N/A,,Light Drizzle,360,2013-10-04 16:37:00
12:48 PM,59.0,59.0,100,30.07,10.0,NNW,3.5,-,N/A,,Mostly Cloudy,340,2013-10-04 16:48:00
12:52 PM,59.0,59.0,100,30.07,10.0,NNW,5.8,-,N/A,,Mostly Cloudy,330,2013-10-04 16:52:00
12:58 PM,59.2,59.0,99,30.09,10.0,NNW,5.8,-,0.22,,Overcast,330,2013-10-04 16:58:00
1:26 PM,60.8,60.8,100,30.05,10.0,North,2.3,-,N/A,,Overcast,10,2013-10-04 17:26:00
1:28 PM,60.8,60.8,100,30.05,10.0,North,2.3,-,N/A,,Overcast,360,2013-10-04 17:28:00
1:30 PM,60.8,60.8,100,30.05,10.0,North,2.3,-,N/A,,Overcast,10,2013-10-04 17:30:00
1:56 PM,60.8,60.8,100,30.05,10.0,ENE,3.5,-,N/A,,Overcast,60,2013-10-04 17:56:00
1:58 PM,61.5,61.2,99,30.07,10.0,Variable,2.3,-,N/A,,Overcast,0,2013-10-04 17:58:00
2:01 PM,62.6,60.8,94,30.04,10.0,NE,3.5,-,N/A,,Overcast,40,2013-10-04 18:01:00
2:11 PM,62.6,60.8,94,30.04,10.0,East,2.3,-,N/A,,Overcast,90,2013-10-04 18:11:00
2:12 PM,62.6,60.8,94,30.04,10.0,Variable,2.3,-,N/A,,Overcast,0,2013-10-04 18:12:00
2:13 PM,62.6,60.8,94,30.04,10.0,Variable,2.3,-,N/A,,Overcast,0,2013-10-04 18:13:00
2:20 PM,62.6,60.8,94,30.04,10.0,Variable,2.3,-,N/A,,Overcast,0,2013-10-04 18:20:00
2:43 PM,62.6,60.8,94,30.04,10.0,NNE,3.5,-,N/A,,Overcast,30,2013-10-04 18:43:00
2:58 PM,62.6,61.7,97,30.06,10.0,Variable,1.2,-,N/A,,Overcast,0,2013-10-04 18:58:00
3:07 PM,62.6,60.8,94,30.04,10.0,Variable,2.3,-,N/A,,Mostly Cloudy,0,2013-10-04 19:07:00
3:15 PM,62.6,62.6,100,30.04,10.0,NNE,1.2,-,N/A,,Overcast,30,2013-10-04 19:15:00
3:58 PM,63.7,62.2,95,30.06,10.0,NNW,4.6,-,N/A,,Overcast,340,2013-10-04 19:58:00
4:58 PM,63.3,61.3,93,30.06,10.0,NNW,5.8,-,N/A,,Mostly Cloudy,340,2013-10-04 20:58:00
5:58 PM,62.6,61.9,97,30.06,10.0,North,1.2,-,N/A,,Mostly Cloudy,360,2013-10-04 21:58:00
6:58 PM,61.5,60.8,97,30.07,10.0,North,3.5,-,N/A,,Mostly Cloudy,10,2013-10-04 22:58:00
7:58 PM,59.2,58.8,99,30.07,10.0,NNW,2.3,-,N/A,,Mostly Cloudy,340,2013-10-04 23:58:00
8:58 PM,57.2,56.8,99,30.08,3.0,North,3.5,-,N/A,,Partly Cloudy,10,2013-10-05 00:58:00
9:58 PM,57.4,57.0,99,30.08,10.0,Calm,Calm,-,N/A,,Scattered Clouds,0,2013-10-05 01:58:00
10:25 PM,57.2,57.2,100,30.07,10.0,Calm,Calm,-,N/A,,Mostly Cloudy,0,2013-10-05 02:25:00
10:43 PM,57.2,57.2,100,30.07,10.0,NNE,2.3,-,N/A,,Overcast,20,2013-10-05 02:43:00
10:58 PM,57.4,57.0,99,30.08,10.0,NNE,4.6,-,N/A,,Overcast,20,2013-10-05 02:58:00
11:58 PM,58.1,57.7,99,30.08,10.0,ENE,3.5,-,N/A,,Mostly Cloudy,60,2013-10-05 03:58:00